Flight Track Log - Related Links

Times and Time Zones

All times are in EST time to prevent confusion due to time zone crossing. See the SKW4631 flight status page for this flight to view local times or setup timezone preferences in your user account.

Time Position Orientation Groundspeed Altitude Reporting Facility
EST Latitude Longitude Course Direction KTS MPH feet Rate Location/Type
Sun 01:08:18 PM 39.9906 -82.8781 104° East 157 181 1,400  Level Indianapolis Center
Sun 01:08:33 PM 39.9906 -82.8650 90° East 156 180 1,800 1,974 Climbing Indianapolis Center
Sun 01:09:34 PM 39.9650 -82.8042 119° Southeast 198 228 3,900 1,967 Climbing Indianapolis Center
Sun 01:10:35 PM 39.9058 -82.7636 152° Southeast 236 272 5,800 2,049 Climbing Indianapolis Center
Sun 01:11:00 PM 39.6790 -82.9755 150° Southeast  Level Estimated
Sun 01:11:37 PM 39.8308 -82.7417 167° South 269 310 8,100  Level Indianapolis Center
Sun 01:12:00 PM 39.5730 -83.0031 153° Southeast  Level Estimated
Sun 01:12:38 PM 39.7494 -82.7156 166° South 291 335 10,500  Level Indianapolis Center
Sun 01:13:00 PM 39.5472 -82.8669 104° East  Level FlightAware Approximate
Sun 01:13:40 PM 39.6617 -82.7228 184° South 315 362 12,100  Level Indianapolis Center
Sun 01:14:41 PM 39.5683 -82.7325 185° South 329 379 13,400 1,415 Climbing Indianapolis Center
Sun 01:15:43 PM 39.4692 -82.7392 183° South 347 399 15,000 1,610 Climbing Indianapolis Center
Sun 01:16:44 PM 39.3472 -82.7503 184° South 360 414 16,700 1,377 Climbing Indianapolis Center
Sun 01:17:45 PM 39.2442 -82.7600 184° South 364 419 17,800 1,171 Climbing Indianapolis Center
Sun 01:18:47 PM 39.1411 -82.7692 184° South 366 421 19,100 1,122 Climbing Indianapolis Center
Sun 01:19:48 PM 39.0361 -82.7792 184° South 372 428 20,100 976 Climbing Indianapolis Center
Sun 01:20:50 PM 38.9300 -82.7889 184° South 377 434 21,100 976 Climbing Indianapolis Center
Sun 01:21:51 PM 38.8258 -82.7986 184° South 377 434 22,100 976 Climbing Indianapolis Center
Sun 01:22:53 PM 38.7186 -82.8075 184° South 382 440 23,100 1,024 Climbing Indianapolis Center
Sun 01:23:54 PM 38.6039 -82.8183 184° South 384 442 24,200 1,033 Climbing Indianapolis Center
Sun 01:24:55 PM 38.4967 -82.8275 184° South 384 442 25,200 976 Climbing Indianapolis Center
Sun 01:25:57 PM 38.3900 -82.8369 184° South 384 442 26,200 976 Climbing Indianapolis Center
Sun 01:26:58 PM 38.2672 -82.8469 184° South 383 441 27,200 732 Climbing Indianapolis Center
Sun 01:28:00 PM 38.1600 -82.8572 184° South 384 442 27,700 488 Climbing Indianapolis Center
Sun 01:29:01 PM 38.0503 -82.8667 184° South 391 450 28,200 492 Climbing Indianapolis Center
Sun 01:30:02 PM 37.9392 -82.8758 184° South 396 456 28,700 488 Climbing Indianapolis Center
Sun 01:31:04 PM 37.8261 -82.8850 184° South 402 463 29,200 488 Climbing Indianapolis Center
Sun 01:32:05 PM 37.7131 -82.8939 184° South 403 464 29,700 488 Climbing Indianapolis Center
Sun 01:33:07 PM 37.5997 -82.9042 184° South 404 465 30,200 537 Climbing Indianapolis Center
Sun 01:34:08 PM 37.4878 -82.9142 184° South 405 466 30,800 689 Climbing Indianapolis Center
Sun 01:35:09 PM 37.3558 -82.9242 183° South 406 467 31,600 585 Climbing Indianapolis Center
Sun 01:36:11 PM 37.2450 -82.9331 184° South 404 465 32,000 195 Climbing Indianapolis Center
Sun 01:37:12 PM 37.1317 -82.9428 184° South 406 467 32,000  Level Indianapolis Center
Sun 01:38:14 PM 37.0161 -82.9531 184° South 413 475 32,000  Level Indianapolis Center
Sun 01:39:15 PM 36.9000 -82.9625 184° South 431 496 32,000  Level Indianapolis Center
Sun 01:40:16 PM 36.7608 -82.9742 184° South 437 503 32,000  Level Indianapolis Center
Sun 01:41:18 PM 36.6400 -82.9842 184° South 437 503 32,000  Level Indianapolis Center
Sun 01:42:19 PM 36.5189 -82.9933 183° South 437 503 32,000  Level Indianapolis Center
Sun 01:43:20 PM 36.3961 -83.0031 184° South 438 504 32,000  Level Indianapolis Center
Sun 01:43:58 PM 36.3064 -83.0133 185° South 444 511 32,000  Level Atlanta Center
Sun 01:44:58 PM 36.1814 -83.0200 182° South 444 511 32,000  Level Atlanta Center
Sun 01:45:58 PM 36.0583 -83.0319 184° South 444 511 32,000  Level Atlanta Center
Sun 01:46:58 PM 35.9375 -83.0411 184° South 444 511 32,000  Level Atlanta Center
Sun 01:47:58 PM 35.8144 -83.0528 184° South 444 511 32,000  Level Atlanta Center
Sun 01:48:58 PM 35.7000 -83.1028 200° South 439 505 32,000  Level Atlanta Center
Sun 01:49:58 PM 35.5900 -83.1553 201° Southwest 434 499 32,000  Level Atlanta Center
Sun 01:50:58 PM 35.4775 -83.2072 201° Southwest 429 494 32,000 -350 Level Atlanta Center
Sun 01:51:58 PM 35.3675 -83.2619 202° Southwest 435 501 31,300 -1,100 Descending Atlanta Center
Sun 01:52:58 PM 35.2531 -83.3139 200° South 435 501 29,800 -1,500 Descending Atlanta Center
Sun 01:53:58 PM 35.1386 -83.3708 202° Southwest 442 509 28,300 -1,500 Descending Atlanta Center
Sun 01:54:58 PM 35.0239 -83.4225 200° South 442 509 26,800 -1,500 Descending Atlanta Center
Sun 01:55:58 PM 34.9094 -83.4714 199° South 442 509 25,300 -1,550 Descending Atlanta Center
Sun 01:56:58 PM 34.7950 -83.5253 201° Southwest 442 509 23,700 -1,850 Descending Atlanta Center
Sun 01:57:58 PM 34.6950 -83.5714 201° Southwest 443 510 21,600 -2,150 Descending Atlanta Center
Sun 01:58:58 PM 34.5867 -83.6175 199° South 426 490 19,400 -2,000 Descending Atlanta Center
Sun 01:59:58 PM 34.4886 -83.6633 201° Southwest 400 460 17,600 -1,850 Descending Atlanta Center
Sun 02:00:58 PM 34.4011 -83.7039 201° Southwest 355 409 15,700 -1,600 Descending Atlanta Center
Sun 02:01:58 PM 34.3239 -83.7394 201° Southwest 315 362 14,400 -1,150 Descending Atlanta Center
Sun 02:02:58 PM 34.2364 -83.7775 200° South 308 354 13,400 -1,000 Descending Atlanta Center
Sun 02:03:58 PM 34.1614 -83.8128 201° Southwest 308 354 12,400 -700 Descending Atlanta Center
Sun 02:04:58 PM 34.0842 -83.8481 201° Southwest 303 349 12,000 -300 Descending Atlanta Center
Sun 02:05:58 PM 34.0258 -83.9108 222° Southwest 283 326 11,800 -900 Descending Atlanta Center
Sun 02:06:58 PM 33.9653 -83.9661 217° Southwest 283 326 10,200 -1,400 Descending Atlanta Center
Sun 02:07:58 PM 33.8881 -83.9664 180° South 262 302 9,000 -600 Descending Atlanta Center
Sun 02:08:58 PM 33.8192 -83.9639 178° South 251 289 9,000 -450 Level Atlanta Center
Sun 02:09:58 PM 33.7544 -83.9614 178° South 251 289 8,100 -621 Descending Atlanta Center
Sun 02:12:21 PM 33.6333 -84.0333 206° Southwest 174 200 6,900 -676 Descending Atlanta TRACON
Sun 02:13:22 PM 33.6333 -84.1000 270° West 186 214 5,800 -1,050 Descending Atlanta TRACON
Sun 02:14:21 PM 33.6333 -84.1667 270° West 194 223 4,800 -908 Descending Atlanta TRACON
Sun 02:15:21 PM 33.6333 -84.2167 270° West 183 211 4,000 -750 Descending Atlanta TRACON
Sun 02:16:21 PM 33.6333 -84.2833 270° West 179 206 3,300 -850 Descending Atlanta TRACON
Sun 02:17:21 PM 33.6333 -84.3500 270° West 182 209 2,300 -893 Descending Atlanta TRACON
Sun 02:18:22 PM 33.6333 -84.4000 270° West 145 167 1,500 -787 Descending Atlanta TRACON

Login

Don't have an account? Register now (free) for customized features, flight alerts, and more!